createdAt,value
2019-02-04T19:30:59.468Z,83.05
2019-02-04T19:31:59.506Z,83.71
2019-02-04T19:32:59.426Z,83.05
2019-02-04T19:33:59.390Z,82.67
2019-02-04T19:34:59.378Z,82.01
2019-02-04T19:35:59.356Z,82.39
2019-02-04T19:36:59.327Z,82.76
2019-02-04T19:37:59.310Z,82.76
2019-02-04T19:38:59.298Z,82.86
2019-02-04T19:39:59.284Z,82.48
2019-02-04T19:40:59.244Z,82.29
2019-02-04T19:41:59.231Z,82.10
2019-02-04T19:42:59.259Z,82.01
2019-02-04T19:43:59.180Z,81.92
2019-02-04T19:44:59.173Z,83.14
2019-02-04T19:45:59.146Z,82.57
2019-02-04T19:46:59.122Z,81.34
2019-02-04T19:47:59.109Z,81.53
2019-02-04T19:48:59.096Z,81.92
2019-02-04T19:49:59.087Z,81.92
2019-02-04T19:50:59.047Z,81.72
2019-02-04T19:51:59.074Z,81.34
2019-02-04T19:52:59.004Z,81.72
2019-02-04T19:53:58.990Z,81.82
2019-02-04T19:54:59.004Z,81.63
2019-02-04T19:55:59.008Z,81.44
2019-02-04T19:56:58.921Z,81.82
2019-02-04T19:57:58.911Z,81.72
2019-02-04T19:58:58.881Z,81.92
2019-02-04T19:59:58.860Z,82.20
2019-02-04T20:00:58.847Z,81.92
2019-02-04T20:01:58.859Z,82.10
2019-02-04T20:02:58.810Z,81.72
2019-02-04T20:03:58.784Z,80.96
2019-02-04T20:04:58.779Z,81.34
2019-02-04T20:05:58.738Z,81.92
2019-02-04T20:06:58.757Z,82.01
2019-02-04T20:07:58.696Z,81.44
2019-02-04T20:08:58.686Z,81.34
2019-02-04T20:09:58.667Z,82.01
2019-02-04T20:10:58.639Z,82.57
2019-02-04T20:11:58.679Z,83.14
2019-02-04T20:12:58.610Z,83.52
2019-02-04T20:13:58.577Z,82.48
2019-02-04T20:14:58.560Z,82.20
2019-02-04T20:15:58.669Z,82.01
2019-02-04T20:16:58.515Z,81.72
2019-02-04T20:17:58.504Z,82.20
2019-02-04T20:18:58.509Z,81.63
2019-02-04T20:19:58.464Z,82.10
2019-02-04T20:20:58.441Z,82.01
2019-02-04T20:21:58.421Z,81.92
2019-02-04T20:22:58.431Z,82.10
2019-02-04T20:23:58.377Z,82.10
2019-02-04T20:24:58.364Z,82.20
2019-02-04T20:25:58.334Z,81.92
2019-02-04T20:26:58.311Z,82.01
2019-02-04T20:27:58.366Z,80.96
2019-02-04T20:28:58.287Z,80.87
2019-02-04T20:29:58.251Z,81.06
2019-02-04T20:30:58.239Z,81.25
2019-02-04T20:31:58.217Z,81.53
2019-02-04T20:32:58.190Z,81.92
2019-02-04T20:33:58.213Z,82.01
2019-02-04T20:34:58.161Z,81.92
2019-02-04T20:35:58.130Z,82.29
2019-02-04T20:36:58.108Z,82.48
2019-02-04T20:37:58.095Z,82.48
2019-02-04T20:38:58.134Z,82.67
2019-02-04T20:39:58.047Z,82.29
2019-02-04T20:40:58.039Z,82.20
2019-02-04T20:41:58.013Z,82.29
2019-02-04T20:42:58.000Z,82.48
2019-02-04T20:43:57.974Z,82.39
2019-02-04T20:44:57.964Z,81.72
2019-02-04T20:45:58.080Z,81.34
2019-02-04T20:46:57.906Z,80.68
2019-02-04T20:47:57.901Z,81.44
2019-02-04T20:48:57.862Z,81.92
2019-02-04T20:49:57.846Z,82.29
2019-02-04T20:51:00.034Z,82.48
2019-02-04T20:51:57.864Z,82.67
2019-02-04T20:52:57.783Z,82.95
2019-02-04T20:53:57.766Z,83.14
2019-02-04T20:54:57.754Z,82.01
2019-02-04T20:55:57.781Z,81.92
2019-02-04T20:56:57.712Z,82.10
2019-02-04T20:57:57.695Z,82.76
2019-02-04T20:58:57.680Z,82.57
2019-02-04T20:59:57.656Z,82.67
2019-02-04T21:00:57.625Z,81.92
2019-02-04T21:01:57.647Z,82.10
2019-02-04T21:02:57.584Z,82.01
2019-02-04T21:03:57.582Z,82.39
2019-02-04T21:04:57.557Z,82.67
2019-02-04T21:05:57.540Z,82.57
2019-02-04T21:06:57.548Z,83.05
2019-02-04T21:07:57.489Z,83.62
2019-02-04T21:08:57.626Z,83.33
2019-02-04T21:09:57.450Z,83.05
2019-02-04T21:10:57.420Z,82.95
2019-02-04T21:11:57.454Z,82.86
2019-02-04T21:12:57.387Z,83.33
2019-02-04T21:13:57.372Z,83.14
2019-02-04T21:14:57.351Z,83.81
2019-02-04T21:15:57.324Z,83.81
2019-02-04T21:16:57.306Z,84.28
2019-02-04T21:17:57.314Z,84.09
2019-02-04T21:18:57.269Z,84.00
2019-02-04T21:19:57.252Z,83.81
2019-02-04T21:20:57.237Z,84.19
2019-02-04T21:21:57.240Z,84.38
2019-02-04T21:22:57.316Z,83.81
2019-02-04T21:23:57.155Z,83.71
2019-02-04T21:24:57.138Z,83.62
2019-02-04T21:25:57.124Z,83.33
2019-02-04T21:26:57.104Z,84.00
2019-02-04T21:27:57.086Z,84.47
2019-02-04T21:28:57.098Z,84.47
2019-02-04T21:29:57.033Z,84.66
2019-02-04T21:30:57.027Z,85.04
2019-02-04T21:31:57.011Z,85.32
2019-02-04T21:32:56.984Z,84.85
2019-02-04T21:33:56.996Z,84.38
2019-02-04T21:34:56.937Z,84.47
2019-02-04T21:35:56.929Z,84.47
2019-02-04T21:36:56.894Z,84.85
2019-02-04T21:37:56.914Z,84.94
2019-02-04T21:38:56.866Z,85.51
2019-02-04T21:39:56.842Z,85.61
2019-02-04T21:40:56.811Z,85.70
2019-02-04T21:41:56.792Z,85.13
2019-02-04T21:42:56.813Z,84.94
2019-02-04T21:43:56.758Z,84.47
2019-02-04T21:44:56.742Z,85.13
2019-02-04T21:45:56.711Z,84.85
2019-02-04T21:46:56.737Z,84.75
2019-02-04T21:47:56.680Z,85.23
2019-02-04T21:48:56.688Z,85.61
2019-02-04T21:49:56.642Z,85.13
2019-02-04T21:50:56.651Z,85.42
2019-02-04T21:51:56.662Z,85.99
2019-02-04T21:52:56.570Z,85.89
2019-02-04T21:53:56.598Z,85.99
2019-02-04T21:55:07.745Z,85.99
2019-02-04T21:55:56.525Z,85.51
2019-02-04T21:56:56.508Z,85.61
2019-02-04T21:57:56.477Z,85.51
2019-02-04T21:58:56.454Z,85.61
2019-02-04T21:59:56.429Z,85.61
2019-02-04T22:00:56.478Z,85.89
2019-02-04T22:01:56.413Z,85.89
2019-02-04T22:02:56.396Z,85.61
2019-02-04T22:03:56.363Z,85.80
2019-02-04T22:04:56.335Z,86.18
2019-02-04T22:05:56.325Z,86.27
2019-02-04T22:06:56.321Z,86.27
2019-02-04T22:07:56.276Z,85.80
2019-02-04T22:08:56.246Z,86.36
2019-02-04T22:09:56.272Z,86.27
2019-02-04T22:10:56.210Z,86.65
2019-02-04T22:11:56.251Z,86.83
2019-02-04T22:12:56.357Z,86.83
2019-02-04T22:13:56.152Z,86.55
2019-02-04T22:14:56.127Z,86.93
2019-02-04T22:15:56.117Z,87.69
2019-02-04T22:16:56.130Z,87.59
2019-02-04T22:17:56.065Z,87.12
2019-02-04T22:18:56.094Z,86.55
2019-02-04T22:19:56.025Z,86.83
2019-02-04T22:20:56.005Z,86.74
2019-02-04T22:21:55.978Z,87.02
2019-02-04T22:22:55.973Z,87.21
2019-02-04T22:23:55.974Z,87.98
2019-02-04T22:24:55.930Z,88.07
2019-02-04T22:25:55.910Z,88.54
2019-02-04T22:26:55.877Z,88.73
2019-02-04T22:27:55.860Z,88.54
2019-02-04T22:28:56.124Z,88.26
2019-02-04T22:29:55.820Z,88.35
2019-02-04T22:30:55.801Z,88.35
2019-02-04T22:31:55.797Z,88.26
2019-02-04T22:32:56.071Z,88.45
2019-02-04T22:33:55.772Z,88.07
2019-02-04T22:34:55.762Z,88.54
2019-02-04T22:35:55.702Z,88.54
2019-02-04T22:36:55.678Z,88.64
2019-02-04T22:37:55.658Z,88.45
2019-02-04T22:38:55.702Z,88.82
2019-02-04T22:39:55.615Z,89.01
2019-02-04T22:40:55.612Z,89.30
2019-02-04T22:41:55.591Z,89.68
2019-02-04T22:42:55.556Z,89.58
2019-02-04T22:43:55.544Z,90.15
2019-02-04T22:44:55.525Z,90.25
2019-02-04T22:45:55.492Z,90.63
2019-02-04T22:46:55.479Z,90.25
2019-02-04T22:47:55.470Z,90.63
2019-02-04T22:48:55.480Z,90.53
2019-02-04T22:49:55.421Z,90.25
2019-02-04T22:50:55.424Z,90.15
2019-02-04T22:51:55.371Z,90.44
2019-02-04T22:52:55.364Z,90.91
2019-02-04T22:53:55.346Z,91.19
2019-02-04T22:54:55.321Z,91.29
2019-02-04T22:55:55.328Z,91.19
2019-02-04T22:56:55.275Z,91.00
2019-02-04T22:57:55.247Z,91.29
2019-02-04T22:58:55.376Z,91.57
2019-02-04T22:59:55.227Z,91.95
2019-02-04T23:00:55.224Z,91.76
2019-02-04T23:01:55.284Z,91.86
2019-02-04T23:02:55.154Z,92.24
2019-02-04T23:03:55.141Z,91.67
2019-02-04T23:04:55.122Z,92.24
2019-02-04T23:05:55.089Z,92.05
2019-02-04T23:06:55.071Z,92.24
2019-02-04T23:07:55.044Z,92.61
2019-02-04T23:08:55.085Z,92.71
2019-02-04T23:09:55.003Z,92.43
2019-02-04T23:10:54.986Z,92.61
2019-02-04T23:11:55.046Z,92.61
2019-02-04T23:12:54.946Z,92.99
2019-02-04T23:13:54.928Z,93.37
2019-02-04T23:14:54.908Z,93.18
2019-02-04T23:15:54.881Z,93.27
2019-02-04T23:16:54.877Z,92.80
2019-02-04T23:17:54.987Z,92.61
2019-02-04T23:18:54.838Z,92.52
2019-02-04T23:19:54.810Z,92.80
2019-02-04T23:20:54.884Z,92.61
2019-02-04T23:21:54.786Z,92.52
2019-02-04T23:22:54.744Z,92.99
2019-02-04T23:23:54.800Z,93.37
2019-02-04T23:24:54.704Z,93.56
2019-02-04T23:25:54.683Z,93.94
2019-02-04T23:26:54.665Z,94.23
2019-02-04T23:27:54.642Z,94.60
2019-02-04T23:28:55.911Z,94.98
2019-02-04T23:29:54.621Z,95.26
2019-02-04T23:30:54.587Z,95.45
2019-02-04T23:31:54.559Z,95.93
2019-02-04T23:32:54.550Z,96.12
2019-02-04T23:33:54.521Z,97.06
2019-02-04T23:34:54.522Z,96.69
2019-02-04T23:35:54.487Z,97.82
2019-02-04T23:36:54.462Z,99.10
2019-02-04T23:37:54.431Z,99.85
2019-02-04T23:38:54.442Z,99.99
2019-02-04T23:39:54.399Z,99.99
2019-02-04T23:40:54.379Z,99.99
2019-02-04T23:41:57.744Z,99.99
2019-02-04T23:42:54.331Z,99.99
2019-02-04T23:43:54.330Z,99.99
2019-02-04T23:44:54.297Z,99.99
2019-02-04T23:45:54.282Z,99.99
2019-02-04T23:46:54.296Z,99.99
2019-02-04T23:47:54.240Z,99.99
2019-02-04T23:48:54.218Z,99.99
2019-02-04T23:49:54.196Z,99.99
2019-02-04T23:50:54.167Z,99.99
2019-02-04T23:51:54.173Z,99.99
2019-02-04T23:52:54.134Z,99.99
2019-02-04T23:53:54.110Z,99.99
2019-02-04T23:54:54.135Z,99.99
2019-02-04T23:55:54.917Z,99.99
2019-02-04T23:56:54.066Z,99.99
2019-02-04T23:57:54.174Z,99.99
2019-02-04T23:58:54.005Z,99.99
2019-02-04T23:59:53.995Z,99.99
